createdAt,value
2023-01-30T00:00:52.472Z,100569.00
2023-01-30T00:03:18.932Z,100570.78
2023-01-30T00:05:45.277Z,100569.94
2023-01-30T00:08:11.597Z,100536.72
2023-01-30T00:10:37.900Z,100496.75
2023-01-30T00:13:04.211Z,100499.44
2023-01-30T00:15:30.502Z,100488.09
2023-01-30T00:17:56.864Z,100476.00
2023-01-30T00:20:23.237Z,100472.44
2023-01-30T00:23:00.449Z,100464.72
2023-01-30T00:25:28.012Z,100441.13
2023-01-30T00:27:54.415Z,100446.34
2023-01-30T00:30:20.806Z,100630.22
2023-01-30T00:32:47.224Z,100430.59
2023-01-30T00:35:13.543Z,100428.19
2023-01-30T00:37:39.858Z,100433.41
2023-01-30T00:40:06.453Z,100421.28
2023-01-30T00:42:51.431Z,100422.13
2023-01-30T00:45:36.269Z,100614.78
2023-01-30T00:48:02.619Z,100606.97
2023-01-30T00:50:42.512Z,100612.19
2023-01-30T00:53:09.911Z,100601.69
2023-01-30T00:55:36.214Z,100591.28
2023-01-30T00:58:02.515Z,100585.22
2023-01-30T01:00:29.116Z,100580.00
2023-01-30T01:02:55.425Z,100578.25
2023-01-30T01:05:21.789Z,100585.31
2023-01-30T01:07:48.095Z,100568.69
2023-01-30T01:10:16.408Z,100581.84
2023-01-30T01:12:44.573Z,100557.25
2023-01-30T01:15:12.246Z,100556.44
2023-01-30T01:17:39.225Z,100569.63
2023-01-30T01:20:05.796Z,100565.31
2023-01-30T01:22:32.104Z,100568.81
2023-01-30T01:24:58.430Z,100574.13
2023-01-30T01:27:24.920Z,100583.78
2023-01-30T01:29:51.206Z,100589.94
2023-01-30T01:32:17.521Z,100595.19
2023-01-30T01:34:43.858Z,100596.13
2023-01-30T01:37:10.202Z,100598.75
2023-01-30T01:39:55.088Z,100596.09
2023-01-30T01:42:22.281Z,100604.88
2023-01-30T01:45:00.491Z,100609.31
2023-01-30T01:47:27.104Z,100613.72
2023-01-30T01:49:53.454Z,100628.66
2023-01-30T01:52:19.769Z,100626.88
2023-01-30T01:54:51.879Z,100635.63
2023-01-30T01:57:20.819Z,100625.22
2023-01-30T01:59:52.911Z,100636.56
2023-01-30T02:02:20.049Z,100645.38
2023-01-30T02:05:06.491Z,100658.56
2023-01-30T02:07:35.384Z,100679.63
2023-01-30T02:10:02.199Z,100695.50
2023-01-30T02:12:28.483Z,100708.66
2023-01-30T02:14:56.241Z,100706.03
2023-01-30T02:17:23.168Z,100718.34
2023-01-30T02:20:08.039Z,100732.41
2023-01-30T02:22:34.322Z,100733.31
2023-01-30T02:25:12.896Z,100741.22
2023-01-30T02:27:48.374Z,100674.34
2023-01-30T02:30:17.660Z,100664.72
2023-01-30T02:32:43.950Z,100670.00
2023-01-30T02:35:19.766Z,100686.63
2023-01-30T02:38:04.227Z,100686.69
2023-01-30T02:40:38.897Z,100720.91
2023-01-30T02:43:14.465Z,100734.97
2023-01-30T02:45:46.898Z,100752.53
2023-01-30T02:48:17.025Z,100750.84
2023-01-30T02:50:46.212Z,100773.63
2023-01-30T02:53:12.637Z,100765.81
2023-01-30T02:55:40.599Z,100790.34
2023-01-30T02:58:07.229Z,100786.84
2023-01-30T03:00:55.043Z,100780.66
2023-01-30T03:03:31.349Z,100775.31
2023-01-30T03:06:09.964Z,100764.75
2023-01-30T03:08:56.953Z,100736.63
2023-01-30T03:11:26.733Z,100716.34
2023-01-30T03:13:58.893Z,100676.84
2023-01-30T03:16:31.733Z,100645.19
2023-01-30T03:19:00.099Z,100619.72
2023-01-30T03:21:26.511Z,100605.66
2023-01-30T03:23:52.810Z,100594.28
2023-01-30T03:26:21.952Z,100556.50
2023-01-30T03:28:49.619Z,100568.75
2023-01-30T03:31:16.056Z,100558.25
2023-01-30T03:33:42.624Z,100564.38
2023-01-30T03:36:09.405Z,100540.69
2023-01-30T03:38:35.993Z,100545.94
2023-01-30T03:41:03.208Z,100542.38
2023-01-30T03:43:29.520Z,100535.34
2023-01-30T03:45:55.811Z,100536.22
2023-01-30T03:48:22.106Z,100541.44
2023-01-30T03:50:49.297Z,100545.81
2023-01-30T03:53:15.619Z,100543.16
2023-01-30T03:55:41.904Z,100529.13
2023-01-30T03:58:08.227Z,100534.41
2023-01-30T04:00:34.597Z,100523.00
2023-01-30T04:03:00.921Z,100515.97
2023-01-30T04:05:27.288Z,100515.97
2023-01-30T04:07:56.102Z,100525.56
2023-01-30T04:10:22.397Z,100536.97
2023-01-30T04:12:48.922Z,100531.75
2023-01-30T04:15:15.449Z,100535.22
2023-01-30T04:17:42.988Z,100522.00
2023-01-30T04:20:09.743Z,100518.44
2023-01-30T04:22:36.281Z,100512.31
2023-01-30T04:25:03.513Z,100514.97
2023-01-30T04:27:29.831Z,100520.25
2023-01-30T04:29:56.141Z,100516.69
2023-01-30T04:32:22.437Z,100519.31
2023-01-30T04:34:48.751Z,100494.69
2023-01-30T04:37:15.039Z,100497.34
2023-01-30T04:39:41.383Z,100487.69
2023-01-30T04:42:07.683Z,100484.16
2023-01-30T04:44:33.994Z,100475.34
2023-01-30T04:47:00.290Z,100478.84
2023-01-30T04:49:26.782Z,100458.66
2023-01-30T04:51:53.058Z,100454.25
2023-01-30T04:54:19.362Z,100359.44
2023-01-30T04:56:45.644Z,100351.63
2023-01-30T04:59:11.958Z,100348.94
2023-01-30T05:01:38.847Z,100340.16
2023-01-30T05:04:05.784Z,100351.56
2023-01-30T05:06:32.630Z,100356.78
2023-01-30T05:08:59.475Z,100358.56
2023-01-30T05:11:26.623Z,100362.03
2023-01-30T05:13:53.463Z,100355.06
2023-01-30T05:16:21.175Z,100372.47
2023-01-30T05:18:47.585Z,100379.50
2023-01-30T05:21:18.921Z,100363.75
2023-01-30T05:23:45.288Z,100360.25
2023-01-30T05:26:12.372Z,100367.25
2023-01-30T05:28:38.713Z,100362.88
2023-01-30T05:31:06.406Z,100363.69
2023-01-30T05:33:32.830Z,100390.00
2023-01-30T05:35:59.483Z,100370.63
2023-01-30T05:38:26.464Z,100375.03
2023-01-30T05:41:03.048Z,100375.06
2023-01-30T05:43:29.762Z,100382.91
2023-01-30T05:45:57.001Z,100382.00
2023-01-30T05:48:23.615Z,100345.22
2023-01-30T05:50:53.613Z,100346.03
2023-01-30T05:53:20.800Z,100338.22
2023-01-30T05:55:47.124Z,100328.50
2023-01-30T05:58:13.447Z,100330.22
2023-01-30T06:00:39.758Z,100335.41
2023-01-30T06:03:06.089Z,100352.09
2023-01-30T06:05:32.433Z,100360.84
2023-01-30T06:07:58.743Z,100367.88
2023-01-30T06:10:25.052Z,100404.75
2023-01-30T06:12:51.353Z,100375.75
2023-01-30T06:15:17.944Z,100359.06
2023-01-30T06:17:44.473Z,100362.56
2023-01-30T06:20:11.160Z,100366.94
2023-01-30T06:22:37.660Z,100361.63
2023-01-30T06:25:04.443Z,100385.38
2023-01-30T06:27:30.811Z,100358.16
2023-01-30T06:29:57.125Z,100356.38
2023-01-30T06:32:23.485Z,100378.25
2023-01-30T06:34:49.777Z,100377.38
2023-01-30T06:37:16.071Z,100373.91
2023-01-30T06:39:42.513Z,100393.13
2023-01-30T06:42:08.810Z,100386.22
2023-01-30T06:44:35.339Z,100404.59
2023-01-30T06:47:01.622Z,100407.19
2023-01-30T06:49:27.961Z,100430.84
2023-01-30T06:51:54.270Z,100435.25
2023-01-30T06:54:20.590Z,100435.22
2023-01-30T06:56:46.872Z,100425.56
2023-01-30T06:59:13.160Z,100438.69
2023-01-30T07:01:39.810Z,100462.41
2023-01-30T07:04:06.169Z,100492.22
2023-01-30T07:06:32.628Z,100551.00
2023-01-30T07:08:59.023Z,100558.91
2023-01-30T07:11:25.718Z,100557.88
2023-01-30T07:13:52.120Z,100549.06
2023-01-30T07:16:18.548Z,100560.47
2023-01-30T07:18:44.861Z,100591.22
2023-01-30T07:21:11.191Z,100537.63
2023-01-30T07:23:37.577Z,100525.34
2023-01-30T07:26:04.828Z,100525.25
2023-01-30T07:28:31.213Z,100517.44
2023-01-30T07:31:00.698Z,100527.88
2023-01-30T07:33:27.213Z,100530.53
2023-01-30T07:35:53.732Z,100556.91
2023-01-30T07:38:20.063Z,100584.06
2023-01-30T07:40:46.481Z,100600.69
2023-01-30T07:43:13.604Z,100600.69
2023-01-30T07:45:41.315Z,100598.06
2023-01-30T07:48:08.416Z,100600.72
2023-01-30T07:50:34.806Z,100629.59
2023-01-30T07:53:04.737Z,100653.34
2023-01-30T07:55:31.280Z,100682.25
2023-01-30T07:57:57.634Z,100714.03
2023-01-30T08:00:24.040Z,100716.72
2023-01-30T08:02:50.390Z,100714.91
2023-01-30T08:05:16.801Z,100735.28
2023-01-30T08:07:43.124Z,100810.91
2023-01-30T08:10:12.001Z,100759.84
2023-01-30T08:12:39.591Z,100777.50
2023-01-30T08:15:06.389Z,100778.41
2023-01-30T08:17:32.773Z,100764.25
2023-01-30T08:19:59.074Z,100746.66
2023-01-30T08:22:25.521Z,100750.06
2023-01-30T08:24:51.841Z,100743.06
2023-01-30T08:27:18.142Z,100762.31
2023-01-30T08:29:44.593Z,100718.34
2023-01-30T08:32:11.078Z,100697.22
2023-01-30T08:34:37.450Z,100677.94
2023-01-30T08:37:03.794Z,100673.53
2023-01-30T08:39:30.201Z,100672.56
2023-01-30T08:41:56.567Z,100671.69
2023-01-30T08:44:22.939Z,100656.81
2023-01-30T08:46:49.281Z,100667.13
2023-01-30T08:49:15.670Z,100649.50
2023-01-30T08:52:00.002Z,100552.88
2023-01-30T08:54:26.414Z,100445.00
2023-01-30T08:56:52.893Z,100438.81
2023-01-30T08:59:19.187Z,100459.81
2023-01-30T09:01:45.496Z,100507.16
2023-01-30T09:04:11.848Z,100484.28
2023-01-30T09:06:38.166Z,100438.69
2023-01-30T09:09:13.628Z,100386.00
2023-01-30T09:11:39.968Z,100375.38
2023-01-30T09:14:06.349Z,100365.84
2023-01-30T09:16:32.718Z,100373.03
2023-01-30T09:18:59.070Z,100388.00
2023-01-30T09:21:25.354Z,100402.16
2023-01-30T09:23:51.639Z,100418.03
2023-01-30T09:26:17.946Z,100439.88
2023-01-30T09:28:44.354Z,100445.19
2023-01-30T09:31:10.880Z,100446.19
2023-01-30T09:33:37.441Z,100477.75
2023-01-30T09:36:03.830Z,100511.09
2023-01-30T09:38:30.147Z,100560.31
2023-01-30T09:40:59.439Z,100554.22
2023-01-30T09:43:44.730Z,100572.66
2023-01-30T09:46:14.970Z,100598.19
2023-01-30T09:49:05.482Z,100622.72
2023-01-30T09:51:31.870Z,100639.50
2023-01-30T09:54:02.120Z,100645.72
2023-01-30T09:56:37.393Z,100655.38
2023-01-30T09:59:04.776Z,100656.28
2023-01-30T10:01:37.505Z,100668.66
2023-01-30T10:04:03.881Z,100700.34
2023-01-30T10:06:31.930Z,100748.91
2023-01-30T10:09:01.301Z,100771.91
2023-01-30T10:11:27.695Z,100763.94
2023-01-30T10:14:12.834Z,100734.03
2023-01-30T10:16:58.777Z,100688.31
2023-01-30T10:19:37.351Z,100658.38
2023-01-30T10:22:12.911Z,100590.78
2023-01-30T10:24:46.426Z,100511.91
2023-01-30T10:27:15.460Z,100478.66
2023-01-30T10:29:44.506Z,100510.34
2023-01-30T10:32:16.621Z,100515.63
2023-01-30T10:34:51.172Z,100490.16
2023-01-30T10:37:18.006Z,100481.47
2023-01-30T10:39:55.204Z,100447.34
2023-01-30T10:42:42.272Z,100450.00
2023-01-30T10:45:36.609Z,100453.63
2023-01-30T10:48:03.007Z,100494.88
2023-01-30T10:50:39.745Z,100425.66
2023-01-30T10:53:15.383Z,100455.44
2023-01-30T10:55:46.102Z,100490.53
2023-01-30T10:58:23.529Z,100502.00
2023-01-30T11:00:56.349Z,100557.34
2023-01-30T11:03:28.290Z,100508.16
2023-01-30T11:05:59.601Z,100518.69
2023-01-30T11:08:31.271Z,100512.56
2023-01-30T11:10:58.328Z,100513.44
2023-01-30T11:13:32.092Z,100510.81
2023-01-30T11:15:59.890Z,100530.09
2023-01-30T11:19:18.190Z,100537.19
2023-01-30T11:21:34.912Z,100537.22
2023-01-30T11:24:19.969Z,100488.09
2023-01-30T11:26:48.487Z,100430.19
2023-01-30T11:29:21.122Z,100483.81
2023-01-30T11:31:49.967Z,100479.44
2023-01-30T11:34:17.746Z,100439.06
2023-01-30T11:36:47.093Z,100410.16
2023-01-30T11:39:13.424Z,100399.69
2023-01-30T11:41:44.202Z,100411.94
2023-01-30T11:44:11.344Z,100405.81
2023-01-30T11:46:40.630Z,100433.94
2023-01-30T11:49:46.960Z,100460.28
2023-01-30T11:52:01.758Z,100481.38
2023-01-30T11:54:39.534Z,100591.97
2023-01-30T11:57:10.748Z,100671.13
2023-01-30T11:59:43.585Z,100713.41
2023-01-30T12:02:29.296Z,100697.63
2023-01-30T12:04:59.495Z,100624.66
2023-01-30T12:07:27.111Z,100563.09
2023-01-30T12:09:54.284Z,100514.88
2023-01-30T12:12:23.588Z,100517.50
2023-01-30T12:14:52.384Z,100501.69
2023-01-30T12:17:22.208Z,100501.69
2023-01-30T12:19:55.745Z,100477.09
2023-01-30T12:22:33.606Z,100443.78
2023-01-30T12:25:13.874Z,100468.34
2023-01-30T12:28:06.382Z,100520.94
2023-01-30T12:30:35.910Z,100592.13
2023-01-30T12:33:04.108Z,100638.66
2023-01-30T12:35:50.710Z,100643.03
2023-01-30T12:38:17.025Z,100587.78
2023-01-30T12:40:55.460Z,100581.63
2023-01-30T12:43:40.222Z,100581.66
2023-01-30T12:46:27.811Z,100601.88
2023-01-30T12:49:12.969Z,100606.31
2023-01-30T12:51:42.304Z,100566.75
2023-01-30T12:54:19.685Z,100520.25
2023-01-30T12:56:54.482Z,100525.47
2023-01-30T12:59:29.736Z,100549.16
2023-01-30T13:01:56.080Z,100620.28
2023-01-30T13:04:22.382Z,100607.13
2023-01-30T13:07:02.002Z,100589.53
2023-01-30T13:09:38.115Z,100603.53
2023-01-30T13:12:12.203Z,100627.28
2023-01-30T13:14:41.924Z,100625.47
2023-01-30T13:17:17.142Z,100604.50
2023-01-30T13:19:49.696Z,100614.06
2023-01-30T13:22:20.307Z,100607.94
2023-01-30T13:25:25.257Z,100583.34
2023-01-30T13:27:57.277Z,100523.69
2023-01-30T13:30:25.455Z,100598.31
2023-01-30T13:32:52.954Z,100761.97
2023-01-30T13:35:42.536Z,100863.97
2023-01-30T13:38:12.762Z,100839.59
2023-01-30T13:40:43.105Z,100723.66
2023-01-30T13:43:16.134Z,100659.44
2023-01-30T13:45:45.284Z,100601.34
2023-01-30T13:48:24.445Z,100197.84
2023-01-30T13:51:05.827Z,100204.78
2023-01-30T13:53:42.386Z,100204.75
2023-01-30T13:56:40.880Z,100212.66
2023-01-30T13:59:17.344Z,100204.06
2023-01-30T14:01:59.011Z,100210.97
2023-01-30T14:04:40.602Z,100223.09
2023-01-30T14:07:16.199Z,100223.97
2023-01-30T14:09:44.486Z,100229.19
2023-01-30T14:12:24.936Z,100231.88
2023-01-30T14:15:09.887Z,100243.31
2023-01-30T14:17:36.279Z,100260.78
2023-01-30T14:20:15.314Z,100258.94
2023-01-30T14:22:50.573Z,100281.56
2023-01-30T14:25:22.724Z,100272.75
2023-01-30T14:27:53.267Z,100278.84
2023-01-30T14:30:31.874Z,100304.97
2023-01-30T14:33:00.143Z,100306.22
2023-01-30T14:35:27.813Z,100303.44
2023-01-30T14:38:04.918Z,100313.91
2023-01-30T14:40:33.008Z,100307.03
2023-01-30T14:43:14.732Z,100317.41
2023-01-30T14:45:49.277Z,100346.78
2023-01-30T14:48:26.293Z,100358.06
2023-01-30T14:51:11.565Z,100370.34
2023-01-30T14:53:48.700Z,100381.75
2023-01-30T14:56:15.293Z,100388.72
2023-01-30T14:58:51.092Z,100399.38
2023-01-30T15:01:17.534Z,100403.53
2023-01-30T15:03:47.848Z,100409.94
2023-01-30T15:06:14.244Z,100406.38
2023-01-30T15:08:42.524Z,100425.22
2023-01-30T15:11:17.486Z,100434.38
2023-01-30T15:14:03.535Z,100434.22
2023-01-30T15:16:41.405Z,100445.50
2023-01-30T15:19:13.625Z,100431.19
2023-01-30T15:21:42.932Z,100463.56
2023-01-30T15:24:27.994Z,100455.44
2023-01-30T15:26:57.396Z,100468.34
2023-01-30T15:29:26.866Z,100470.94
2023-01-30T15:32:01.031Z,100476.31
2023-01-30T15:34:29.395Z,100463.91
2023-01-30T15:36:55.723Z,100491.91
2023-01-30T15:39:23.771Z,100509.81
2023-01-30T15:41:52.652Z,100521.44
2023-01-30T15:44:32.716Z,100512.63
2023-01-30T15:47:02.041Z,100528.47
2023-01-30T15:49:44.447Z,100531.16
2023-01-30T15:52:13.970Z,100550.28
2023-01-30T15:54:40.310Z,100537.19
2023-01-30T15:57:06.810Z,100558.75
2023-01-30T15:59:35.924Z,100578.72
2023-01-30T16:02:04.063Z,100568.78
2023-01-30T16:04:30.512Z,100583.03
2023-01-30T16:06:56.868Z,100607.28
2023-01-30T16:09:24.747Z,100600.34
2023-01-30T16:11:51.273Z,100604.44
2023-01-30T16:14:18.670Z,100604.47
2023-01-30T16:16:51.668Z,100624.31
2023-01-30T16:19:26.308Z,100629.63
2023-01-30T16:21:53.108Z,100630.16
2023-01-30T16:24:26.798Z,100629.63
2023-01-30T16:26:56.251Z,100628.66
2023-01-30T16:29:24.388Z,100645.97
2023-01-30T16:31:52.464Z,100661.38
2023-01-30T16:34:32.870Z,100657.28
2023-01-30T16:37:02.427Z,100665.84
2023-01-30T16:39:30.682Z,100678.41
2023-01-30T16:41:57.811Z,100679.25
2023-01-30T16:44:25.273Z,100693.31
2023-01-30T16:46:51.595Z,100693.25
2023-01-30T16:49:36.212Z,100684.38
2023-01-30T16:52:04.907Z,100720.97
2023-01-30T16:54:32.342Z,100731.91
2023-01-30T16:57:00.522Z,100716.78
2023-01-30T16:59:30.381Z,100732.91
2023-01-30T17:01:58.916Z,100722.03
2023-01-30T17:04:28.501Z,100745.81
2023-01-30T17:06:56.687Z,100753.91
2023-01-30T17:09:38.193Z,100757.97
2023-01-30T17:12:23.360Z,100754.50
2023-01-30T17:14:49.704Z,100777.88
2023-01-30T17:17:16.373Z,100771.84
2023-01-30T17:19:46.207Z,100782.72
2023-01-30T17:22:19.200Z,100788.69
2023-01-30T17:24:45.557Z,100781.44
2023-01-30T17:27:11.917Z,100793.91
2023-01-30T17:29:43.144Z,100788.72
2023-01-30T17:32:11.443Z,100803.78
2023-01-30T17:34:40.887Z,100802.13
2023-01-30T17:37:13.333Z,100803.66
2023-01-30T17:39:39.714Z,100801.75
2023-01-30T17:42:09.160Z,100818.25
2023-01-30T17:44:35.473Z,100824.19
2023-01-30T17:47:01.829Z,100821.63
2023-01-30T17:49:28.112Z,100828.63
2023-01-30T17:51:55.511Z,100825.16
2023-01-30T17:54:22.511Z,100837.44
2023-01-30T17:56:51.938Z,100835.75
2023-01-30T17:59:19.828Z,100842.69
2023-01-30T18:01:47.582Z,100833.84
2023-01-30T18:04:14.223Z,100852.88
2023-01-30T18:06:42.128Z,100860.53
2023-01-30T18:09:12.410Z,100879.38
2023-01-30T18:11:38.736Z,100884.63
2023-01-30T18:14:07.036Z,100893.13
2023-01-30T18:16:33.810Z,100913.06
2023-01-30T18:19:05.483Z,100905.16
2023-01-30T18:21:32.812Z,100898.94
2023-01-30T18:23:59.138Z,100899.91
2023-01-30T18:26:25.800Z,100918.00
2023-01-30T18:28:53.314Z,100924.00
2023-01-30T18:31:23.704Z,100917.13
2023-01-30T18:33:50.505Z,100918.25
2023-01-30T18:36:17.931Z,100920.97
2023-01-30T18:38:44.268Z,100943.53
2023-01-30T18:41:18.369Z,100927.75
2023-01-30T18:43:45.471Z,100932.06
2023-01-30T18:46:13.175Z,100937.94
2023-01-30T18:48:39.634Z,100913.56
2023-01-30T18:51:16.404Z,100948.28
2023-01-30T18:53:43.329Z,100945.69
2023-01-30T18:56:11.403Z,100958.00
2023-01-30T18:58:37.992Z,100972.56
2023-01-30T19:01:17.606Z,100972.16
2023-01-30T19:03:44.607Z,100976.53
2023-01-30T19:06:13.047Z,100983.53
2023-01-30T19:08:39.934Z,101002.09
2023-01-30T19:11:26.888Z,101001.41
2023-01-30T19:13:54.254Z,101010.81
2023-01-30T19:16:24.767Z,101008.78
2023-01-30T19:18:52.615Z,101020.16
2023-01-30T19:21:19.317Z,101025.44
2023-01-30T19:23:45.681Z,101030.00
2023-01-30T19:26:12.393Z,101038.88
2023-01-30T19:28:39.121Z,101057.16
2023-01-30T19:31:06.294Z,101049.44
2023-01-30T19:33:33.573Z,101034.44
2023-01-30T19:36:13.521Z,101023.16
2023-01-30T19:38:40.371Z,100997.56
2023-01-30T19:41:10.779Z,100992.03
2023-01-30T19:43:38.312Z,100990.00
2023-01-30T19:46:05.778Z,100993.44
2023-01-30T19:48:32.585Z,100998.69
2023-01-30T19:51:02.714Z,101006.47
2023-01-30T19:53:29.119Z,101015.81
2023-01-30T19:55:55.500Z,101024.75
2023-01-30T19:58:21.815Z,101032.41
2023-01-30T20:00:50.138Z,101028.22
2023-01-30T20:03:16.555Z,101031.84
2023-01-30T20:05:43.265Z,101027.69
2023-01-30T20:08:21.802Z,101037.97
2023-01-30T20:11:00.770Z,101053.41
2023-01-30T20:13:27.068Z,101046.94
2023-01-30T20:15:53.651Z,101058.94
2023-01-30T20:18:19.991Z,101069.94
2023-01-30T20:20:46.914Z,101074.09
2023-01-30T20:23:13.223Z,101081.03
2023-01-30T20:25:39.566Z,101084.44
2023-01-30T20:28:05.908Z,101077.41
2023-01-30T20:30:32.209Z,101094.81
2023-01-30T20:32:58.523Z,101086.88
2023-01-30T20:35:24.853Z,101091.38
2023-01-30T20:37:51.181Z,101111.59
2023-01-30T20:40:18.808Z,101107.88
2023-01-30T20:42:45.456Z,101111.16
2023-01-30T20:45:11.755Z,101101.56
2023-01-30T20:47:40.341Z,101112.19
2023-01-30T20:50:06.811Z,101112.78
2023-01-30T20:52:33.281Z,101122.19
2023-01-30T20:54:59.598Z,101122.97
2023-01-30T20:57:26.088Z,101126.34
2023-01-30T20:59:52.410Z,101118.13
2023-01-30T21:02:18.707Z,101120.63
2023-01-30T21:04:45.038Z,101136.22
2023-01-30T21:07:11.392Z,101124.41
2023-01-30T21:09:38.262Z,101130.47
2023-01-30T21:12:04.787Z,101134.91
2023-01-30T21:14:31.190Z,101131.63
2023-01-30T21:16:57.545Z,101137.50
2023-01-30T21:19:23.937Z,101145.34
2023-01-30T21:21:53.337Z,101149.00
2023-01-30T21:24:27.261Z,101142.19
2023-01-30T21:26:54.289Z,101153.16
2023-01-30T21:29:22.249Z,101152.97
2023-01-30T21:31:48.743Z,101166.69
2023-01-30T21:34:15.542Z,101172.03
2023-01-30T21:36:42.012Z,101173.69
2023-01-30T21:39:31.603Z,101179.69
2023-01-30T21:42:16.304Z,101187.41
2023-01-30T21:44:42.617Z,101193.50
2023-01-30T21:47:09.027Z,101195.88
2023-01-30T21:49:36.772Z,101203.50
2023-01-30T21:52:03.344Z,101199.44
2023-01-30T21:54:29.710Z,101205.31
2023-01-30T21:56:56.061Z,101212.03
2023-01-30T21:59:22.367Z,101208.44
2023-01-30T22:01:48.740Z,101210.38
2023-01-30T22:04:15.090Z,101207.78
2023-01-30T22:06:41.824Z,101218.03
2023-01-30T22:09:08.623Z,101221.34
2023-01-30T22:11:36.386Z,101237.75
2023-01-30T22:14:03.258Z,101242.09
2023-01-30T22:16:30.122Z,101240.56
2023-01-30T22:18:58.680Z,101243.16
2023-01-30T22:21:26.000Z,101245.56
2023-01-30T22:23:53.010Z,101240.19
2023-01-30T22:26:20.600Z,101249.09
2023-01-30T22:28:47.199Z,101247.19
2023-01-30T22:31:15.102Z,101246.22
2023-01-30T22:33:45.149Z,101260.91
2023-01-30T22:36:11.808Z,101266.91
2023-01-30T22:38:41.748Z,101271.22
2023-01-30T22:41:11.011Z,101275.34
2023-01-30T22:43:37.429Z,101270.97
2023-01-30T22:46:05.343Z,101277.72
2023-01-30T22:48:31.753Z,101276.06
2023-01-30T22:51:02.568Z,101273.06
2023-01-30T22:53:36.149Z,101262.50
2023-01-30T22:56:03.369Z,101267.03
2023-01-30T22:58:29.773Z,101259.19
2023-01-30T23:01:02.888Z,101266.97
2023-01-30T23:03:29.288Z,101265.38
2023-01-30T23:05:57.685Z,101261.81
2023-01-30T23:08:25.708Z,101267.03
2023-01-30T23:10:53.237Z,101255.53
2023-01-30T23:13:19.664Z,101258.19
2023-01-30T23:15:46.870Z,101264.22
2023-01-30T23:18:35.456Z,101253.47
2023-01-30T23:21:01.920Z,101253.41
2023-01-30T23:23:28.298Z,101253.25
2023-01-30T23:25:54.686Z,101259.38
2023-01-30T23:28:21.050Z,101258.91
2023-01-30T23:30:47.472Z,101266.78
2023-01-30T23:33:13.793Z,101263.22
2023-01-30T23:35:40.249Z,101255.16
2023-01-30T23:38:15.482Z,101268.28
2023-01-30T23:40:50.936Z,101263.03
2023-01-30T23:43:17.457Z,101277.84
2023-01-30T23:45:43.859Z,101263.75
2023-01-30T23:48:10.342Z,101271.47
2023-01-30T23:50:40.062Z,101271.94
2023-01-30T23:53:07.446Z,101270.31
2023-01-30T23:55:33.768Z,101271.31
2023-01-30T23:58:00.214Z,101267.09
